Joshua Tree National Park, CA

2:16 PM PDT on October 20, 2014 (GMT -0700)
Rural | Change Station
CLOSE
Current Station
Personal Weather Station
Location: Twentynine Palms, CA
Elevation: 2133 ft
Nearby Weather Stations

Elev 2133 ft 34.16 °N, 116.10 °W | Updated 1 second ago

Clear
Clear
86.6 °F
Feels Like 83 °F
N
8.0
Wind Variable Wind from ENE
Gusts 13.0 mph

Today
High -- | Low -- °F
--% Chance of Precip.
Yesterday
High -- | Low -- °F
Precip. -- in
6:53 AM 6:03 PM
Waning Crescent, 9% visible
Pressure 29.83 in
Visibility 10.0 miles
Clouds Few 8000 ft
Heat Index 83 °F
Dew Point 43 °F
Humidity 22%
Rainfall 0.00 in
Snow Depth Not available.
UV 5 out of 12
Pollen 3.60 out of 12
Ozone Good
Flu Activity Sporadic
METAR KNXP 202056Z 16005KT 10SM FEW080 30/06 A2993 RMK AO2 SLP102 T03000056 56023

More Conditions Fewer Conditions

Pressure 29.83 in
Visibility 10.0 miles
Clouds Few 8000 ft
Heat Index 83 °F
Dew Point 43 °F
Humidity 22%
Rainfall 0.00 in
Snow Depth Not available.
UV 5 out of 12
Pollen 3.60 out of 12
Ozone Good
Flu Activity Sporadic
METAR KNXP 202056Z 16005KT 10SM FEW080 30/06 A2993 RMK AO2 SLP102 T03000056 56023

More Conditions Fewer Conditions

10-Day Weather Forecast

Almanac

Astronomy

Oct. 20, 2014 Rise Set
Actual Time 6:53 AM PDT 6:03 PM PDT
Civil Twilight 6:28 AM PDT 6:29 PM PDT
Nautical Twilight 5:58 AM PDT 6:58 PM PDT
Astronomical Twilight 5:29 AM PDT 7:27 PM PDT
Moon 3:53 AM PDT 4:21 PM PDT
Length of Visible Light 12h 01m
Length of Day
11h 10m
Waning Crescent, 9% of the Moon is Illuminated
Today
Waning Crescent
Oct 23
New
Oct 30
First Quarter
Nov 6
Full
Nov 14
Last Quarter

Today's Extremes

State Highs State Lows

Community

WunderPhotos

Upload Photos

1,763,510 photos uploaded!

WunderBlogs® & News

Nearby

Air Quality

  Air Quality AQ Index Pollutant
Yesterday Good
OZONE
Yesterday Good
PM10
Current Good
OZONE
Tuesday Moderate
OZONE
Tuesday Good
PM10
Tuesday Good
CO
Tuesday Good
NO2

Snow Depth

Station Depth Elevation
Leavitt Lake 0 in 9400 ft
Leavitt Meadows 0 in 7200 ft
Sonora Pass 0 in 8800 ft
Monitor Pass 0 in 8350 ft
Echo Peak 0 in 7800 ft

Earthquake Activity

City Distance Mag. Time & Date
Fort Irwin, California 64 miles 3.1 6:03 AM PDT
2014-10-17
Minimum magnitude displayed is 2.5.

Coastal Water Temperatures

Place Temperature
No Stations Reporting

Nearby Weather Stations